sensor_id;sensor_type;location;lat;lon;timestamp;pressure;altitude;pressure_sealevel;temperature;humidity
57000;BME280;42891;50.006;21.964;2023-07-29T00:03:16;50994.69;;;-146.02;77.86
57000;BME280;42891;50.006;21.964;2023-07-29T00:07:16;51002.69;;;-146.02;77.58
57000;BME280;42891;50.006;21.964;2023-07-29T00:11:16;50966.63;;;-146.02;77.73
57000;BME280;42891;50.006;21.964;2023-07-29T00:15:17;50968.63;;;-146.02;77.79
57000;BME280;42891;50.006;21.964;2023-07-29T00:19:17;51022.72;;;-146.02;77.62
57000;BME280;42891;50.006;21.964;2023-07-29T00:23:17;50996.69;;;-146.02;77.78
57000;BME280;42891;50.006;21.964;2023-07-29T00:27:19;50986.66;;;-146.02;77.77
57000;BME280;42891;50.006;21.964;2023-07-29T00:31:19;50966.63;;;-146.02;77.86
57000;BME280;42891;50.006;21.964;2023-07-29T00:35:19;51018.72;;;-146.02;77.56
57000;BME280;42891;50.006;21.964;2023-07-29T00:39:20;50964.63;;;-146.02;77.58
57000;BME280;42891;50.006;21.964;2023-07-29T00:43:20;51002.69;;;-146.02;77.61
57000;BME280;42891;50.006;21.964;2023-07-29T00:47:21;50950.59;;;-146.02;78.20
57000;BME280;42891;50.006;21.964;2023-07-29T00:51:22;50964.63;;;-146.02;77.69
57000;BME280;42891;50.006;21.964;2023-07-29T00:55:23;51002.69;;;-146.02;77.68
57000;BME280;42891;50.006;21.964;2023-07-29T00:59:24;50990.66;;;-146.02;77.81
57000;BME280;42891;50.006;21.964;2023-07-29T01:03:25;50964.63;;;-146.02;78.11
57000;BME280;42891;50.006;21.964;2023-07-29T01:07:35;50970.63;;;-146.02;78.78
57000;BME280;42891;50.006;21.964;2023-07-29T01:11:57;50954.59;;;-146.02;78.72
57000;BME280;42891;50.006;21.964;2023-07-29T01:16:01;50958.59;;;-146.02;79.11
57000;BME280;42891;50.006;21.964;2023-07-29T01:20:09;51012.72;;;-146.02;79.15
57000;BME280;42891;50.006;21.964;2023-07-29T01:24:11;50976.63;;;-146.02;79.20
57000;BME280;42891;50.006;21.964;2023-07-29T01:28:11;51012.72;;;-146.02;79.24
57000;BME280;42891;50.006;21.964;2023-07-29T01:32:17;51002.69;;;-146.02;79.24
57000;BME280;42891;50.006;21.964;2023-07-29T01:36:21;50942.56;;;-146.02;78.63
57000;BME280;42891;50.006;21.964;2023-07-29T01:40:26;50988.66;;;-146.02;78.83
57000;BME280;42891;50.006;21.964;2023-07-29T01:44:27;50984.66;;;-146.02;79.07
57000;BME280;42891;50.006;21.964;2023-07-29T01:48:28;50960.59;;;-146.02;78.92
57000;BME280;42891;50.006;21.964;2023-07-29T01:52:30;51014.72;;;-146.02;79.62
57000;BME280;42891;50.006;21.964;2023-07-29T01:56:30;50984.66;;;-146.02;79.66
57000;BME280;42891;50.006;21.964;2023-07-29T02:00:31;51004.69;;;-146.02;79.64
57000;BME280;42891;50.006;21.964;2023-07-29T02:04:31;50988.66;;;-146.02;79.82
57000;BME280;42891;50.006;21.964;2023-07-29T02:08:31;50986.66;;;-146.02;79.87
57000;BME280;42891;50.006;21.964;2023-07-29T02:12:32;50974.63;;;-146.02;80.11
57000;BME280;42891;50.006;21.964;2023-07-29T02:16:32;50988.66;;;-146.02;80.04
57000;BME280;42891;50.006;21.964;2023-07-29T02:20:34;50978.66;;;-146.02;80.34
57000;BME280;42891;50.006;21.964;2023-07-29T02:24:34;50978.66;;;-146.02;80.07
57000;BME280;42891;50.006;21.964;2023-07-29T02:28:35;51000.69;;;-146.02;79.96
57000;BME280;42891;50.006;21.964;2023-07-29T02:32:35;51020.72;;;-146.02;79.91
57000;BME280;42891;50.006;21.964;2023-07-29T02:36:36;51018.72;;;-146.02;79.51
57000;BME280;42891;50.006;21.964;2023-07-29T02:40:37;50998.69;;;-146.02;79.42
57000;BME280;42891;50.006;21.964;2023-07-29T02:44:39;51026.72;;;-146.02;79.93
57000;BME280;42891;50.006;21.964;2023-07-29T02:48:40;51024.72;;;-146.02;80.12
57000;BME280;42891;50.006;21.964;2023-07-29T02:52:40;50996.69;;;-146.02;80.31
57000;BME280;42891;50.006;21.964;2023-07-29T02:56:40;50994.69;;;-146.02;80.31
57000;BME280;42891;50.006;21.964;2023-07-29T03:00:41;51022.72;;;-146.02;79.95
57000;BME280;42891;50.006;21.964;2023-07-29T03:04:44;50994.69;;;-146.02;79.50
57000;BME280;42891;50.006;21.964;2023-07-29T03:08:44;50982.66;;;-146.02;79.96
57000;BME280;42891;50.006;21.964;2023-07-29T03:12:45;51026.72;;;-146.02;79.88
57000;BME280;42891;50.006;21.964;2023-07-29T03:16:45;51004.69;;;-146.02;80.01
57000;BME280;42891;50.006;21.964;2023-07-29T03:20:45;51042.75;;;-146.02;80.12
57000;BME280;42891;50.006;21.964;2023-07-29T03:24:46;51020.72;;;-146.02;80.34
57000;BME280;42891;50.006;21.964;2023-07-29T03:28:46;51010.72;;;-146.02;80.50
57000;BME280;42891;50.006;21.964;2023-07-29T03:32:46;50998.69;;;-146.02;80.67
57000;BME280;42891;50.006;21.964;2023-07-29T03:36:47;51010.72;;;-146.02;80.92
57000;BME280;42891;50.006;21.964;2023-07-29T03:40:51;50994.69;;;-146.02;81.04
57000;BME280;42891;50.006;21.964;2023-07-29T03:44:53;51002.69;;;-146.02;80.99
57000;BME280;42891;50.006;21.964;2023-07-29T03:48:53;50986.66;;;-146.02;81.21
57000;BME280;42891;50.006;21.964;2023-07-29T03:52:54;51008.69;;;-146.02;81.24
57000;BME280;42891;50.006;21.964;2023-07-29T03:56:54;51014.72;;;-146.02;81.44
57000;BME280;42891;50.006;21.964;2023-07-29T04:00:54;51030.75;;;-146.02;81.23
57000;BME280;42891;50.006;21.964;2023-07-29T04:04:55;51028.75;;;-146.02;81.47
57000;BME280;42891;50.006;21.964;2023-07-29T04:08:55;51000.69;;;-146.02;81.55
57000;BME280;42891;50.006;21.964;2023-07-29T04:12:56;50974.63;;;-146.02;81.27
57000;BME280;42891;50.006;21.964;2023-07-29T04:16:56;51022.72;;;-146.02;80.88
57000;BME280;42891;50.006;21.964;2023-07-29T04:20:56;51004.69;;;-146.02;80.69
57000;BME280;42891;50.006;21.964;2023-07-29T04:24:57;50988.66;;;-146.02;80.59
57000;BME280;42891;50.006;21.964;2023-07-29T04:28:57;51018.72;;;-146.02;80.55
57000;BME280;42891;50.006;21.964;2023-07-29T04:32:58;51008.69;;;-146.02;80.60
57000;BME280;42891;50.006;21.964;2023-07-29T04:36:59;50998.69;;;-146.02;80.90
57000;BME280;42891;50.006;21.964;2023-07-29T04:40:59;51000.69;;;-146.02;80.90
57000;BME280;42891;50.006;21.964;2023-07-29T04:45:02;51018.72;;;-146.02;81.50
57000;BME280;42891;50.006;21.964;2023-07-29T04:49:02;51008.69;;;-146.02;81.57
57000;BME280;42891;50.006;21.964;2023-07-29T04:53:03;51000.69;;;-146.02;81.14
57000;BME280;42891;50.006;21.964;2023-07-29T04:57:03;50992.66;;;-146.02;81.32
57000;BME280;42891;50.006;21.964;2023-07-29T05:01:04;51006.69;;;-146.02;81.15
57000;BME280;42891;50.006;21.964;2023-07-29T05:05:05;50980.66;;;-146.02;81.07
57000;BME280;42891;50.006;21.964;2023-07-29T05:09:18;50992.66;;;-146.02;80.87
57000;BME280;42891;50.006;21.964;2023-07-29T05:13:20;50968.63;;;-146.02;80.79
57000;BME280;42891;50.006;21.964;2023-07-29T05:17:21;50984.66;;;-146.02;80.05
57000;BME280;42891;50.006;21.964;2023-07-29T05:21:21;50994.69;;;-146.02;80.06
57000;BME280;42891;50.006;21.964;2023-07-29T05:25:22;50966.63;;;-146.02;80.69
57000;BME280;42891;50.006;21.964;2023-07-29T05:29:22;50986.66;;;-146.02;79.58
57000;BME280;42891;50.006;21.964;2023-07-29T05:33:22;50990.66;;;-146.02;79.60
57000;BME280;42891;50.006;21.964;2023-07-29T05:37:23;50986.66;;;-146.02;79.12
57000;BME280;42891;50.006;21.964;2023-07-29T05:41:23;50944.59;;;-146.02;78.78
57000;BME280;42891;50.006;21.964;2023-07-29T05:45:23;50976.63;;;-146.02;78.18
57000;BME280;42891;50.006;21.964;2023-07-29T05:49:24;50976.63;;;-146.02;78.11
57000;BME280;42891;50.006;21.964;2023-07-29T05:53:24;50964.63;;;-146.02;78.35
57000;BME280;42891;50.006;21.964;2023-07-29T05:57:24;50946.59;;;-146.02;77.43
57000;BME280;42891;50.006;21.964;2023-07-29T06:01:25;50948.59;;;-146.02;77.05
57000;BME280;42891;50.006;21.964;2023-07-29T06:05:26;50984.66;;;-146.02;77.74
57000;BME280;42891;50.006;21.964;2023-07-29T06:09:26;50928.56;;;-146.02;76.19
57000;BME280;42891;50.006;21.964;2023-07-29T06:13:27;50912.53;;;-146.02;76.13
57000;BME280;42891;50.006;21.964;2023-07-29T06:17:27;50936.56;;;-146.02;76.23
57000;BME280;42891;50.006;21.964;2023-07-29T06:21:27;50926.53;;;-146.02;74.90
57000;BME280;42891;50.006;21.964;2023-07-29T06:25:28;50928.56;;;-146.02;74.11
57000;BME280;42891;50.006;21.964;2023-07-29T06:29:28;50960.59;;;-146.02;73.87
57000;BME280;42891;50.006;21.964;2023-07-29T06:33:28;50918.53;;;-146.02;74.06
57000;BME280;42891;50.006;21.964;2023-07-29T06:37:29;50914.53;;;-146.02;73.27
57000;BME280;42891;50.006;21.964;2023-07-29T06:41:29;50932.56;;;-146.02;74.42
57000;BME280;42891;50.006;21.964;2023-07-29T06:45:30;50924.53;;;-146.02;72.92
57000;BME280;42891;50.006;21.964;2023-07-29T06:49:30;50946.59;;;-146.02;72.60
57000;BME280;42891;50.006;21.964;2023-07-29T06:53:31;50954.59;;;-146.02;72.89
57000;BME280;42891;50.006;21.964;2023-07-29T06:57:31;50928.56;;;-146.02;73.18
57000;BME280;42891;50.006;21.964;2023-07-29T07:01:32;50934.56;;;-146.02;73.70
57000;BME280;42891;50.006;21.964;2023-07-29T07:05:32;50896.50;;;-146.02;72.17
57000;BME280;42891;50.006;21.964;2023-07-29T07:09:33;50916.53;;;-146.02;72.12
57000;BME280;42891;50.006;21.964;2023-07-29T07:13:33;50940.56;;;-146.02;72.04
57000;BME280;42891;50.006;21.964;2023-07-29T07:17:34;50908.50;;;-146.02;71.15
57000;BME280;42891;50.006;21.964;2023-07-29T07:21:34;50944.59;;;-146.02;71.11
57000;BME280;42891;50.006;21.964;2023-07-29T07:25:34;50934.56;;;-146.02;70.26
57000;BME280;42891;50.006;21.964;2023-07-29T07:29:35;50920.53;;;-146.02;71.66
57000;BME280;42891;50.006;21.964;2023-07-29T07:33:35;50916.53;;;-146.02;69.58
57000;BME280;42891;50.006;21.964;2023-07-29T07:37:35;50900.50;;;-146.02;69.94
57000;BME280;42891;50.006;21.964;2023-07-29T07:41:36;50926.53;;;-146.02;69.19
57000;BME280;42891;50.006;21.964;2023-07-29T07:45:36;50918.53;;;-146.02;71.29
57000;BME280;42891;50.006;21.964;2023-07-29T07:49:36;50928.56;;;-146.02;67.82
57000;BME280;42891;50.006;21.964;2023-07-29T07:53:37;50914.53;;;-146.02;68.83
57000;BME280;42891;50.006;21.964;2023-07-29T07:57:37;50868.44;;;-146.02;67.92
57000;BME280;42891;50.006;21.964;2023-07-29T08:01:38;50878.47;;;-146.02;67.65
57000;BME280;42891;50.006;21.964;2023-07-29T08:05:39;50890.47;;;-146.02;67.20
57000;BME280;42891;50.006;21.964;2023-07-29T08:09:39;50886.47;;;-146.02;67.18
57000;BME280;42891;50.006;21.964;2023-07-29T08:13:40;50858.41;;;-146.02;65.57
57000;BME280;42891;50.006;21.964;2023-07-29T08:17:40;50890.47;;;-146.02;65.48
57000;BME280;42891;50.006;21.964;2023-07-29T08:21:40;50856.41;;;-146.02;66.47
57000;BME280;42891;50.006;21.964;2023-07-29T08:25:41;50892.47;;;-146.02;66.28
57000;BME280;42891;50.006;21.964;2023-07-29T08:29:41;50884.47;;;-146.02;66.16
57000;BME280;42891;50.006;21.964;2023-07-29T08:33:42;50852.41;;;-146.02;67.42
57000;BME280;42891;50.006;21.964;2023-07-29T08:37:42;50880.47;;;-146.02;64.03
57000;BME280;42891;50.006;21.964;2023-07-29T08:41:51;50862.44;;;-146.02;64.66
57000;BME280;42891;50.006;21.964;2023-07-29T08:45:54;50856.41;;;-146.02;65.79
57000;BME280;42891;50.006;21.964;2023-07-29T08:49:55;50844.41;;;-146.02;65.91
57000;BME280;42891;50.006;21.964;2023-07-29T08:53:55;50870.44;;;-146.02;64.49
57000;BME280;42891;50.006;21.964;2023-07-29T08:57:57;50880.47;;;-146.02;64.33
57000;BME280;42891;50.006;21.964;2023-07-29T09:01:58;50866.44;;;-146.02;65.09
57000;BME280;42891;50.006;21.964;2023-07-29T09:05:58;50854.41;;;-146.02;63.46
57000;BME280;42891;50.006;21.964;2023-07-29T09:09:59;50872.44;;;-146.02;64.53
57000;BME280;42891;50.006;21.964;2023-07-29T09:13:59;50856.41;;;-146.02;64.40
57000;BME280;42891;50.006;21.964;2023-07-29T09:18:09;50868.44;;;-146.02;62.99
57000;BME280;42891;50.006;21.964;2023-07-29T09:22:18;50836.38;;;-146.02;63.30
57000;BME280;42891;50.006;21.964;2023-07-29T09:26:22;50858.41;;;-146.02;61.48
57000;BME280;42891;50.006;21.964;2023-07-29T09:30:23;50896.50;;;-146.02;61.54
57000;BME280;42891;50.006;21.964;2023-07-29T09:34:24;50866.44;;;-146.02;62.31
57000;BME280;42891;50.006;21.964;2023-07-29T09:38:27;50832.38;;;-146.02;61.53
57000;BME280;42891;50.006;21.964;2023-07-29T09:42:28;50840.38;;;-146.02;62.22
57000;BME280;42891;50.006;21.964;2023-07-29T09:46:35;50826.38;;;-146.02;63.52
57000;BME280;42891;50.006;21.964;2023-07-29T09:50:36;50854.41;;;-146.02;64.27
57000;BME280;42891;50.006;21.964;2023-07-29T09:54:37;50878.47;;;-146.02;63.53
57000;BME280;42891;50.006;21.964;2023-07-29T09:58:37;50878.47;;;-146.02;64.30
57000;BME280;42891;50.006;21.964;2023-07-29T10:02:42;50870.44;;;-146.02;64.28
57000;BME280;42891;50.006;21.964;2023-07-29T10:06:43;50876.44;;;-146.02;64.20
57000;BME280;42891;50.006;21.964;2023-07-29T10:10:43;50872.44;;;-146.02;64.24
57000;BME280;42891;50.006;21.964;2023-07-29T10:14:45;50830.38;;;-146.02;65.28
57000;BME280;42891;50.006;21.964;2023-07-29T10:18:48;50832.38;;;-146.02;64.88
57000;BME280;42891;50.006;21.964;2023-07-29T10:22:48;50868.44;;;-146.02;62.75
57000;BME280;42891;50.006;21.964;2023-07-29T10:26:50;50852.41;;;-146.02;62.86
57000;BME280;42891;50.006;21.964;2023-07-29T10:30:51;50818.34;;;-146.02;61.00
57000;BME280;42891;50.006;21.964;2023-07-29T10:34:52;50850.41;;;-146.02;61.12
57000;BME280;42891;50.006;21.964;2023-07-29T10:38:53;50828.38;;;-146.02;60.65
57000;BME280;42891;50.006;21.964;2023-07-29T10:43:01;50870.44;;;-146.02;59.87
57000;BME280;42891;50.006;21.964;2023-07-29T10:47:14;50828.38;;;-146.02;59.33
57000;BME280;42891;50.006;21.964;2023-07-29T10:51:36;50824.34;;;-146.02;60.12
57000;BME280;42891;50.006;21.964;2023-07-29T10:55:36;50820.34;;;-146.02;62.28
57000;BME280;42891;50.006;21.964;2023-07-29T10:59:37;50794.31;;;-146.02;60.79
57000;BME280;42891;50.006;21.964;2023-07-29T11:03:37;50848.41;;;-146.02;59.81
57000;BME280;42891;50.006;21.964;2023-07-29T11:07:45;50820.34;;;-146.02;59.25
57000;BME280;42891;50.006;21.964;2023-07-29T11:11:46;50872.44;;;-146.02;57.50
57000;BME280;42891;50.006;21.964;2023-07-29T11:15:47;50790.28;;;-146.02;56.57
57000;BME280;42891;50.006;21.964;2023-07-29T11:19:48;50808.34;;;-146.02;56.36
57000;BME280;42891;50.006;21.964;2023-07-29T11:23:53;50806.31;;;-146.02;56.71
57000;BME280;42891;50.006;21.964;2023-07-29T11:27:55;50802.31;;;-146.02;55.85
57000;BME280;42891;50.006;21.964;2023-07-29T11:31:56;50788.28;;;-146.02;53.20
57000;BME280;42891;50.006;21.964;2023-07-29T11:35:56;50816.34;;;-146.02;55.62
57000;BME280;42891;50.006;21.964;2023-07-29T11:39:56;50790.28;;;-146.02;57.07
57000;BME280;42891;50.006;21.964;2023-07-29T11:43:58;50786.28;;;-146.02;56.38
57000;BME280;42891;50.006;21.964;2023-07-29T11:48:00;50826.38;;;-146.02;54.91
57000;BME280;42891;50.006;21.964;2023-07-29T11:52:02;50798.31;;;-146.02;55.85
57000;BME280;42891;50.006;21.964;2023-07-29T11:56:03;50816.34;;;-146.02;58.52
57000;BME280;42891;50.006;21.964;2023-07-29T12:00:08;50782.28;;;-146.02;57.62
57000;BME280;42891;50.006;21.964;2023-07-29T12:04:10;50792.31;;;-146.02;54.95
57000;BME280;42891;50.006;21.964;2023-07-29T12:08:11;50792.31;;;-146.02;55.63
57000;BME280;42891;50.006;21.964;2023-07-29T12:12:11;50788.28;;;-146.02;54.99
57000;BME280;42891;50.006;21.964;2023-07-29T12:16:16;50770.25;;;-146.02;54.01
57000;BME280;42891;50.006;21.964;2023-07-29T12:20:20;50772.25;;;-146.02;53.16
57000;BME280;42891;50.006;21.964;2023-07-29T12:24:22;50772.25;;;-146.02;53.20
57000;BME280;42891;50.006;21.964;2023-07-29T12:28:23;50830.38;;;-146.02;54.75
57000;BME280;42891;50.006;21.964;2023-07-29T12:32:25;50776.28;;;-146.02;53.87
57000;BME280;42891;50.006;21.964;2023-07-29T12:36:48;50784.28;;;-146.02;54.64
57000;BME280;42891;50.006;21.964;2023-07-29T12:40:48;50774.28;;;-146.02;54.18
57000;BME280;42891;50.006;21.964;2023-07-29T12:44:49;50776.28;;;-146.02;55.71
57000;BME280;42891;50.006;21.964;2023-07-29T12:48:49;50816.34;;;-146.02;55.51
57000;BME280;42891;50.006;21.964;2023-07-29T12:52:49;50794.31;;;-146.02;55.92
57000;BME280;42891;50.006;21.964;2023-07-29T12:56:50;50784.28;;;-146.02;56.20
57000;BME280;42891;50.006;21.964;2023-07-29T13:00:50;50798.31;;;-146.02;55.66
57000;BME280;42891;50.006;21.964;2023-07-29T13:04:51;50770.25;;;-146.02;56.60
57000;BME280;42891;50.006;21.964;2023-07-29T13:08:51;50826.38;;;-146.02;56.06
57000;BME280;42891;50.006;21.964;2023-07-29T13:12:52;50772.25;;;-146.02;55.53
57000;BME280;42891;50.006;21.964;2023-07-29T13:16:52;50820.34;;;-146.02;55.64
57000;BME280;42891;50.006;21.964;2023-07-29T13:20:53;50808.34;;;-146.02;55.82
57000;BME280;42891;50.006;21.964;2023-07-29T13:24:53;50796.31;;;-146.02;56.10
57000;BME280;42891;50.006;21.964;2023-07-29T13:28:54;50810.34;;;-146.02;56.90
57000;BME280;42891;50.006;21.964;2023-07-29T13:32:55;50822.34;;;-146.02;57.16
57000;BME280;42891;50.006;21.964;2023-07-29T13:36:56;50812.34;;;-146.02;58.47
57000;BME280;42891;50.006;21.964;2023-07-29T13:40:56;50804.31;;;-146.02;55.52
57000;BME280;42891;50.006;21.964;2023-07-29T13:44:56;50766.25;;;-146.02;56.30
57000;BME280;42891;50.006;21.964;2023-07-29T13:48:57;50810.34;;;-146.02;55.79
57000;BME280;42891;50.006;21.964;2023-07-29T13:52:57;50818.34;;;-146.02;56.02
57000;BME280;42891;50.006;21.964;2023-07-29T13:56:57;50824.34;;;-146.02;56.11
57000;BME280;42891;50.006;21.964;2023-07-29T14:00:58;50800.31;;;-146.02;56.00
57000;BME280;42891;50.006;21.964;2023-07-29T14:04:58;50768.25;;;-146.02;56.63
57000;BME280;42891;50.006;21.964;2023-07-29T14:08:58;50820.34;;;-146.02;57.75
57000;BME280;42891;50.006;21.964;2023-07-29T14:12:59;50816.34;;;-146.02;57.78
57000;BME280;42891;50.006;21.964;2023-07-29T14:16:59;50800.31;;;-146.02;58.49
57000;BME280;42891;50.006;21.964;2023-07-29T14:20:59;50792.31;;;-146.02;59.00
57000;BME280;42891;50.006;21.964;2023-07-29T14:25:00;50798.31;;;-146.02;58.68
57000;BME280;42891;50.006;21.964;2023-07-29T14:29:00;50784.28;;;-146.02;58.79
57000;BME280;42891;50.006;21.964;2023-07-29T14:33:01;50834.38;;;-146.02;59.18
57000;BME280;42891;50.006;21.964;2023-07-29T14:37:01;50820.34;;;-146.02;59.27
57000;BME280;42891;50.006;21.964;2023-07-29T14:41:01;50804.31;;;-146.02;59.26
57000;BME280;42891;50.006;21.964;2023-07-29T14:45:02;50776.28;;;-146.02;59.66
57000;BME280;42891;50.006;21.964;2023-07-29T14:49:02;50782.28;;;-146.02;59.85
57000;BME280;42891;50.006;21.964;2023-07-29T14:53:02;50820.34;;;-146.02;59.87
57000;BME280;42891;50.006;21.964;2023-07-29T14:57:05;50814.34;;;-146.02;59.66
57000;BME280;42891;50.006;21.964;2023-07-29T15:01:06;50812.34;;;-146.02;60.10
57000;BME280;42891;50.006;21.964;2023-07-29T15:05:06;50802.31;;;-146.02;60.28
57000;BME280;42891;50.006;21.964;2023-07-29T15:09:07;50784.28;;;-146.02;60.45
57000;BME280;42891;50.006;21.964;2023-07-29T15:13:08;50820.34;;;-146.02;60.64
57000;BME280;42891;50.006;21.964;2023-07-29T15:17:08;50832.38;;;-146.02;60.36
57000;BME280;42891;50.006;21.964;2023-07-29T15:21:08;50744.22;;;-146.02;59.85
57000;BME280;42891;50.006;21.964;2023-07-29T15:25:09;50800.31;;;-146.02;60.79
57000;BME280;42891;50.006;21.964;2023-07-29T15:29:10;50774.28;;;-146.02;58.77
57000;BME280;42891;50.006;21.964;2023-07-29T15:33:10;50790.28;;;-146.02;58.55
57000;BME280;42891;50.006;21.964;2023-07-29T15:37:11;50774.28;;;-146.02;59.70
57000;BME280;42891;50.006;21.964;2023-07-29T15:41:11;50776.28;;;-146.02;59.48
57000;BME280;42891;50.006;21.964;2023-07-29T15:45:11;50778.28;;;-146.02;59.04
57000;BME280;42891;50.006;21.964;2023-07-29T15:49:12;50788.28;;;-146.02;59.65
57000;BME280;42891;50.006;21.964;2023-07-29T15:53:12;50764.25;;;-146.02;58.48
57000;BME280;42891;50.006;21.964;2023-07-29T15:57:13;50756.22;;;-146.02;58.33
57000;BME280;42891;50.006;21.964;2023-07-29T16:01:13;50770.25;;;-146.02;57.80
57000;BME280;42891;50.006;21.964;2023-07-29T16:05:14;50746.22;;;-146.02;57.26
57000;BME280;42891;50.006;21.964;2023-07-29T16:09:14;50768.25;;;-146.02;58.05
57000;BME280;42891;50.006;21.964;2023-07-29T16:13:14;50756.22;;;-146.02;57.71
57000;BME280;42891;50.006;21.964;2023-07-29T16:17:17;50758.25;;;-146.02;57.74
57000;BME280;42891;50.006;21.964;2023-07-29T16:21:18;50772.25;;;-146.02;58.27
57000;BME280;42891;50.006;21.964;2023-07-29T16:25:18;50768.25;;;-146.02;58.77
57000;BME280;42891;50.006;21.964;2023-07-29T16:29:19;50752.22;;;-146.02;58.93
57000;BME280;42891;50.006;21.964;2023-07-29T16:33:19;50802.31;;;-146.02;58.23
57000;BME280;42891;50.006;21.964;2023-07-29T16:37:20;50778.28;;;-146.02;57.80
57000;BME280;42891;50.006;21.964;2023-07-29T16:41:20;50788.28;;;-146.02;58.02
57000;BME280;42891;50.006;21.964;2023-07-29T16:45:21;50778.28;;;-146.02;58.53
57000;BME280;42891;50.006;21.964;2023-07-29T16:49:22;50822.34;;;-146.02;58.60
57000;BME280;42891;50.006;21.964;2023-07-29T16:53:22;50804.31;;;-146.02;58.25
57000;BME280;42891;50.006;21.964;2023-07-29T16:57:22;50790.28;;;-146.02;58.49
57000;BME280;42891;50.006;21.964;2023-07-29T17:01:23;50822.34;;;-146.02;58.60
57000;BME280;42891;50.006;21.964;2023-07-29T17:05:23;50788.28;;;-146.02;58.72
57000;BME280;42891;50.006;21.964;2023-07-29T17:09:23;50784.28;;;-146.02;59.24
57000;BME280;42891;50.006;21.964;2023-07-29T17:13:24;50804.31;;;-146.02;59.32
57000;BME280;42891;50.006;21.964;2023-07-29T17:17:24;50784.28;;;-146.02;59.21
57000;BME280;42891;50.006;21.964;2023-07-29T17:21:25;50794.31;;;-146.02;58.93
57000;BME280;42891;50.006;21.964;2023-07-29T17:25:25;50820.34;;;-146.02;59.42
57000;BME280;42891;50.006;21.964;2023-07-29T17:29:28;50760.25;;;-146.02;59.41
57000;BME280;42891;50.006;21.964;2023-07-29T17:33:28;50776.28;;;-146.02;59.64
57000;BME280;42891;50.006;21.964;2023-07-29T17:37:28;50800.31;;;-146.02;59.86
57000;BME280;42891;50.006;21.964;2023-07-29T17:41:29;50788.28;;;-146.02;60.12
57000;BME280;42891;50.006;21.964;2023-07-29T17:45:29;50748.22;;;-146.02;60.32
57000;BME280;42891;50.006;21.964;2023-07-29T17:49:30;50804.31;;;-146.02;60.60
57000;BME280;42891;50.006;21.964;2023-07-29T17:53:30;50816.34;;;-146.02;61.32
57000;BME280;42891;50.006;21.964;2023-07-29T17:57:31;50848.41;;;-146.02;61.10
57000;BME280;42891;50.006;21.964;2023-07-29T18:01:31;50792.31;;;-146.02;61.07
57000;BME280;42891;50.006;21.964;2023-07-29T18:05:31;50810.34;;;-146.02;61.92
57000;BME280;42891;50.006;21.964;2023-07-29T18:09:32;50804.31;;;-146.02;61.34
57000;BME280;42891;50.006;21.964;2023-07-29T18:13:32;50806.31;;;-146.02;61.12
57000;BME280;42891;50.006;21.964;2023-07-29T18:17:34;50832.38;;;-146.02;61.62
57000;BME280;42891;50.006;21.964;2023-07-29T18:21:34;50814.34;;;-146.02;61.97
57000;BME280;42891;50.006;21.964;2023-07-29T18:25:35;50810.34;;;-146.02;61.79
57000;BME280;42891;50.006;21.964;2023-07-29T18:29:35;50792.31;;;-146.02;61.92
57000;BME280;42891;50.006;21.964;2023-07-29T18:33:35;50842.38;;;-146.02;62.30
57000;BME280;42891;50.006;21.964;2023-07-29T18:37:36;50842.38;;;-146.02;62.44
57000;BME280;42891;50.006;21.964;2023-07-29T18:41:36;50822.34;;;-146.02;63.50
57000;BME280;42891;50.006;21.964;2023-07-29T18:45:37;50854.41;;;-146.02;64.63
57000;BME280;42891;50.006;21.964;2023-07-29T18:49:37;50800.31;;;-146.02;64.97
57000;BME280;42891;50.006;21.964;2023-07-29T18:53:38;50824.34;;;-146.02;65.09
57000;BME280;42891;50.006;21.964;2023-07-29T18:57:38;50820.34;;;-146.02;65.15
57000;BME280;42891;50.006;21.964;2023-07-29T19:01:38;50876.44;;;-146.02;65.78
57000;BME280;42891;50.006;21.964;2023-07-29T19:05:39;50852.41;;;-146.02;65.84
57000;BME280;42891;50.006;21.964;2023-07-29T19:09:42;50840.38;;;-146.02;65.99
57000;BME280;42891;50.006;21.964;2023-07-29T19:13:43;50866.44;;;-146.02;66.03
57000;BME280;42891;50.006;21.964;2023-07-29T19:17:43;50852.41;;;-146.02;66.58
57000;BME280;42891;50.006;21.964;2023-07-29T19:21:44;50850.41;;;-146.02;66.23
57000;BME280;42891;50.006;21.964;2023-07-29T19:25:45;50840.38;;;-146.02;65.81
57000;BME280;42891;50.006;21.964;2023-07-29T19:29:46;50842.38;;;-146.02;65.37
57000;BME280;42891;50.006;21.964;2023-07-29T19:33:47;50850.41;;;-146.02;65.91
57000;BME280;42891;50.006;21.964;2023-07-29T19:37:47;50842.38;;;-146.02;66.23
57000;BME280;42891;50.006;21.964;2023-07-29T19:41:47;50914.53;;;-146.02;66.15
57000;BME280;42891;50.006;21.964;2023-07-29T19:45:48;50844.41;;;-146.02;65.94
57000;BME280;42891;50.006;21.964;2023-07-29T19:49:48;50844.41;;;-146.02;65.95
57000;BME280;42891;50.006;21.964;2023-07-29T19:53:49;50846.41;;;-146.02;66.35
57000;BME280;42891;50.006;21.964;2023-07-29T19:57:50;50828.38;;;-146.02;66.62
57000;BME280;42891;50.006;21.964;2023-07-29T20:01:50;50846.41;;;-146.02;66.84
57000;BME280;42891;50.006;21.964;2023-07-29T20:05:50;50874.44;;;-146.02;67.00
57000;BME280;42891;50.006;21.964;2023-07-29T20:09:51;50846.41;;;-146.02;67.19
57000;BME280;42891;50.006;21.964;2023-07-29T20:13:51;50856.41;;;-146.02;66.83
57000;BME280;42891;50.006;21.964;2023-07-29T20:17:52;50866.44;;;-146.02;67.38
57000;BME280;42891;50.006;21.964;2023-07-29T20:21:53;50864.44;;;-146.02;67.35
57000;BME280;42891;50.006;21.964;2023-07-29T20:25:53;50896.50;;;-146.02;67.22
57000;BME280;42891;50.006;21.964;2023-07-29T20:29:54;50870.44;;;-146.02;67.19